createdAt,value
2022-09-15T00:01:05.412Z,18.24
2022-09-15T00:03:33.009Z,18.22
2022-09-15T00:06:00.586Z,18.24
2022-09-15T00:08:29.503Z,18.25
2022-09-15T00:11:03.152Z,18.34
2022-09-15T00:13:30.733Z,18.36
2022-09-15T00:15:58.573Z,18.38
2022-09-15T00:18:26.419Z,18.29
2022-09-15T00:20:54.053Z,18.15
2022-09-15T00:23:21.570Z,18.17
2022-09-15T00:25:52.589Z,18.26
2022-09-15T00:28:22.171Z,18.26
2022-09-15T00:30:52.275Z,18.41
2022-09-15T00:33:21.837Z,18.40
2022-09-15T00:35:51.477Z,18.44
2022-09-15T00:38:20.024Z,18.44
2022-09-15T00:40:50.944Z,18.46
2022-09-15T00:43:23.711Z,18.44
2022-09-15T00:45:52.908Z,18.38
2022-09-15T00:48:23.179Z,18.50
2022-09-15T00:50:56.133Z,18.54
2022-09-15T00:53:25.511Z,18.53
2022-09-15T00:55:55.366Z,18.48
2022-09-15T00:58:26.742Z,18.47
2022-09-15T01:00:57.551Z,18.45
2022-09-15T01:03:27.031Z,18.49
2022-09-15T01:05:57.637Z,18.45
2022-09-15T01:08:29.504Z,18.45
2022-09-15T01:10:58.900Z,18.45
2022-09-15T01:13:27.218Z,18.45
2022-09-15T01:16:07.654Z,18.46
2022-09-15T01:18:42.709Z,18.44
2022-09-15T01:21:19.620Z,18.51
2022-09-15T01:24:16.918Z,18.44
2022-09-15T01:27:24.450Z,18.53
2022-09-15T01:30:09.979Z,18.55
2022-09-15T01:33:05.698Z,18.53
2022-09-15T01:35:41.440Z,18.57
2022-09-15T01:38:15.110Z,18.55
2022-09-15T01:40:47.957Z,18.55
2022-09-15T01:43:17.842Z,18.58
2022-09-15T01:45:49.214Z,18.60
2022-09-15T01:48:19.946Z,18.58
2022-09-15T01:50:51.727Z,18.61
2022-09-15T01:53:23.222Z,18.59
2022-09-15T01:55:57.441Z,18.57
2022-09-15T01:58:25.313Z,18.61
2022-09-15T02:00:59.839Z,18.64
2022-09-15T02:03:34.980Z,18.52
2022-09-15T02:06:11.075Z,18.57
2022-09-15T02:08:45.131Z,18.54
2022-09-15T02:11:17.067Z,18.47
2022-09-15T02:13:54.086Z,18.51
2022-09-15T02:16:25.798Z,18.53
2022-09-15T02:19:03.841Z,18.51
2022-09-15T02:21:39.445Z,18.50
2022-09-15T02:24:12.800Z,18.54
2022-09-15T02:26:43.059Z,18.56
2022-09-15T02:29:16.255Z,18.57
2022-09-15T02:31:47.002Z,18.53
2022-09-15T02:34:18.942Z,18.53
2022-09-15T02:36:47.614Z,18.56
2022-09-15T02:39:20.374Z,18.55
2022-09-15T02:41:48.986Z,18.53
2022-09-15T02:44:16.583Z,18.50
2022-09-15T02:46:45.480Z,18.52
2022-09-15T02:49:14.250Z,18.49
2022-09-15T02:51:41.870Z,18.51
2022-09-15T02:54:09.582Z,18.52
2022-09-15T02:56:37.151Z,18.48
2022-09-15T02:59:04.775Z,18.52
2022-09-15T03:01:34.404Z,18.52
2022-09-15T03:04:04.994Z,18.56
2022-09-15T03:06:36.030Z,18.56
2022-09-15T03:09:05.818Z,18.55
2022-09-15T03:11:34.454Z,18.54
2022-09-15T03:14:04.114Z,18.52
2022-09-15T03:16:34.292Z,18.52
2022-09-15T03:19:04.022Z,18.52
2022-09-15T03:21:31.730Z,18.55
2022-09-15T03:23:59.462Z,18.53
2022-09-15T03:26:27.171Z,18.45
2022-09-15T03:28:54.726Z,18.42
2022-09-15T03:31:22.376Z,18.48
2022-09-15T03:33:50.468Z,18.51
2022-09-15T03:36:19.358Z,18.46
2022-09-15T03:38:46.925Z,18.48
2022-09-15T03:41:14.631Z,18.43
2022-09-15T03:43:42.361Z,18.44
2022-09-15T03:46:12.455Z,18.45
2022-09-15T03:48:40.863Z,18.46
2022-09-15T03:51:10.415Z,18.44
2022-09-15T03:53:41.085Z,18.43
2022-09-15T03:56:11.066Z,18.47
2022-09-15T03:58:39.084Z,18.50
2022-09-15T04:01:06.724Z,18.43
2022-09-15T04:03:37.477Z,18.48
2022-09-15T04:06:08.370Z,18.45
2022-09-15T04:08:35.912Z,18.48
2022-09-15T04:11:07.504Z,18.49
2022-09-15T04:13:35.214Z,18.51
2022-09-15T04:16:04.485Z,18.52
2022-09-15T04:18:33.072Z,18.45
2022-09-15T04:21:01.585Z,18.54
2022-09-15T04:23:29.392Z,18.52
2022-09-15T04:25:57.778Z,18.63
2022-09-15T04:28:27.558Z,18.56
2022-09-15T04:31:03.645Z,18.58
2022-09-15T04:33:31.282Z,18.51
2022-09-15T04:35:59.763Z,18.54
2022-09-15T04:38:27.354Z,18.31
2022-09-15T04:40:55.403Z,18.13
2022-09-15T04:43:23.181Z,17.92
2022-09-15T04:45:52.731Z,17.92
2022-09-15T04:48:20.322Z,17.81
2022-09-15T04:50:47.938Z,17.51
2022-09-15T04:53:16.458Z,17.48
2022-09-15T04:55:44.626Z,17.39
2022-09-15T04:58:12.298Z,17.38
2022-09-15T05:00:42.894Z,17.27
2022-09-15T05:03:12.820Z,17.46
2022-09-15T05:05:41.055Z,17.29
2022-09-15T05:08:08.892Z,17.16
2022-09-15T05:10:38.095Z,17.11
2022-09-15T05:13:05.662Z,17.10
2022-09-15T05:15:33.735Z,17.08
2022-09-15T05:18:01.528Z,17.05
2022-09-15T05:20:30.423Z,16.80
2022-09-15T05:22:58.006Z,16.73
2022-09-15T05:25:25.801Z,16.89
2022-09-15T05:27:53.751Z,16.77
2022-09-15T05:30:37.583Z,16.89
2022-09-15T05:33:06.613Z,16.68
2022-09-15T05:35:35.549Z,16.87
2022-09-15T05:38:03.477Z,16.86
2022-09-15T05:40:31.048Z,16.72
2022-09-15T05:42:58.679Z,16.81
2022-09-15T05:45:26.221Z,16.97
2022-09-15T05:47:53.768Z,17.01
2022-09-15T05:50:21.332Z,17.07
2022-09-15T05:52:53.195Z,16.85
2022-09-15T05:55:20.730Z,16.69
2022-09-15T05:57:48.362Z,16.52
2022-09-15T06:00:16.576Z,16.63
2022-09-15T06:02:44.163Z,16.10
2022-09-15T06:05:11.879Z,16.21
2022-09-15T06:07:39.503Z,16.02
2022-09-15T06:10:10.213Z,16.09
2022-09-15T06:12:37.745Z,15.82
2022-09-15T06:15:05.954Z,15.82
2022-09-15T06:17:34.008Z,15.88
2022-09-15T06:20:01.546Z,15.61
2022-09-15T06:22:29.118Z,15.61
2022-09-15T06:24:56.659Z,15.62
2022-09-15T06:27:25.666Z,15.57
2022-09-15T06:29:53.337Z,15.59
2022-09-15T06:32:20.928Z,15.45
2022-09-15T06:34:48.595Z,15.58
2022-09-15T06:37:16.467Z,15.41
2022-09-15T06:39:44.540Z,15.48
2022-09-15T06:42:14.028Z,15.35
2022-09-15T06:44:43.047Z,15.54
2022-09-15T06:47:10.642Z,15.47
2022-09-15T06:49:38.177Z,15.36
2022-09-15T06:52:05.737Z,15.29
2022-09-15T06:54:33.342Z,15.33
2022-09-15T06:57:00.872Z,15.35
2022-09-15T06:59:28.429Z,15.46
2022-09-15T07:02:02.649Z,15.45
2022-09-15T07:04:32.402Z,15.42
2022-09-15T07:06:59.973Z,15.36
2022-09-15T07:09:27.489Z,15.39
2022-09-15T07:11:55.034Z,15.50
2022-09-15T07:14:22.909Z,15.43
2022-09-15T07:16:50.454Z,15.36
2022-09-15T07:19:19.369Z,15.44
2022-09-15T07:21:46.895Z,15.52
2022-09-15T07:24:14.508Z,15.45
2022-09-15T07:26:42.071Z,15.59
2022-09-15T07:29:10.611Z,15.61
2022-09-15T07:31:39.754Z,15.66
2022-09-15T07:34:08.010Z,15.66
2022-09-15T07:36:36.953Z,15.82
2022-09-15T07:39:05.764Z,15.74
2022-09-15T07:41:34.093Z,15.78
2022-09-15T07:44:02.513Z,15.89
2022-09-15T07:46:32.283Z,16.10
2022-09-15T07:49:00.592Z,16.18
2022-09-15T07:51:28.143Z,16.24
2022-09-15T07:53:57.075Z,16.44
2022-09-15T07:56:24.826Z,16.46
2022-09-15T07:58:52.914Z,16.54
2022-09-15T08:01:22.404Z,16.66
2022-09-15T08:03:52.641Z,16.59
2022-09-15T08:06:22.770Z,16.72
2022-09-15T08:08:52.274Z,16.74
2022-09-15T08:11:23.367Z,16.74
2022-09-15T08:13:52.300Z,16.83
2022-09-15T08:16:22.748Z,16.81
2022-09-15T08:18:52.473Z,16.93
2022-09-15T08:21:21.887Z,17.04
2022-09-15T08:23:52.364Z,17.17
2022-09-15T08:26:20.200Z,17.03
2022-09-15T08:28:49.852Z,16.96
2022-09-15T08:31:18.030Z,17.09
2022-09-15T08:33:48.842Z,17.16
2022-09-15T08:36:16.613Z,17.00
2022-09-15T08:38:45.846Z,17.09
2022-09-15T08:41:19.242Z,17.19
2022-09-15T08:43:51.995Z,17.18
2022-09-15T08:46:25.462Z,17.25
2022-09-15T08:49:02.884Z,17.46
2022-09-15T08:51:34.879Z,17.48
2022-09-15T08:54:08.613Z,17.67
2022-09-15T08:56:37.138Z,17.70
2022-09-15T08:59:06.228Z,17.79
2022-09-15T09:01:54.201Z,17.71
2022-09-15T09:04:42.360Z,17.89
2022-09-15T09:07:22.636Z,17.77
2022-09-15T09:09:57.762Z,17.73
2022-09-15T09:12:42.508Z,17.94
2022-09-15T09:15:27.726Z,17.93
2022-09-15T09:18:18.787Z,18.00
2022-09-15T09:20:56.413Z,18.09
2022-09-15T09:23:29.549Z,18.12
2022-09-15T09:25:58.637Z,17.91
2022-09-15T09:28:31.537Z,17.93
2022-09-15T09:31:08.203Z,17.86
2022-09-15T09:33:47.490Z,18.11
2022-09-15T09:36:16.295Z,18.19
2022-09-15T09:38:46.856Z,18.03
2022-09-15T09:41:17.459Z,18.24
2022-09-15T09:43:48.333Z,18.55
2022-09-15T09:46:20.154Z,18.27
2022-09-15T09:48:53.554Z,18.40
2022-09-15T09:51:32.824Z,18.78
2022-09-15T09:54:15.296Z,18.64
2022-09-15T09:56:43.278Z,18.87
2022-09-15T09:59:34.800Z,19.05
2022-09-15T10:02:15.622Z,18.99
2022-09-15T10:04:44.502Z,19.08
2022-09-15T10:07:13.196Z,19.17
2022-09-15T10:09:41.110Z,18.85
2022-09-15T10:12:20.441Z,19.07
2022-09-15T10:14:54.010Z,18.93
2022-09-15T10:17:26.414Z,19.02
2022-09-15T10:19:55.855Z,19.34
2022-09-15T10:22:27.682Z,19.64
2022-09-15T10:24:55.489Z,19.88
2022-09-15T10:27:29.904Z,19.62
2022-09-15T10:30:01.664Z,19.68
2022-09-15T10:32:31.986Z,19.76
2022-09-15T10:35:05.963Z,19.75
2022-09-15T10:37:38.703Z,19.64
2022-09-15T10:40:23.201Z,19.52
2022-09-15T10:42:52.851Z,19.52
2022-09-15T10:45:27.551Z,19.47
2022-09-15T10:48:14.520Z,19.80
2022-09-15T10:50:52.386Z,20.79
2022-09-15T10:53:36.489Z,21.10
2022-09-15T10:56:16.516Z,21.81
2022-09-15T10:58:56.641Z,22.45
2022-09-15T11:01:40.192Z,23.10
2022-09-15T11:04:29.389Z,23.10
2022-09-15T11:07:04.362Z,23.03
2022-09-15T11:09:35.332Z,22.52
2022-09-15T11:12:17.935Z,22.50
2022-09-15T11:14:56.957Z,23.58
2022-09-15T11:17:43.903Z,24.02
2022-09-15T11:20:41.272Z,24.67
2022-09-15T11:23:19.692Z,24.31
2022-09-15T11:25:54.044Z,24.68
2022-09-15T11:28:27.819Z,24.57
2022-09-15T11:31:01.639Z,24.14
2022-09-15T11:33:33.793Z,23.58
2022-09-15T11:36:06.482Z,22.96
2022-09-15T11:38:47.759Z,22.35
2022-09-15T11:41:21.706Z,21.23
2022-09-15T11:44:04.106Z,21.22
2022-09-15T11:46:43.796Z,21.14
2022-09-15T11:49:18.158Z,22.45
2022-09-15T11:51:53.506Z,23.69
2022-09-15T11:54:31.608Z,24.15
2022-09-15T11:57:00.605Z,24.08
2022-09-15T11:59:33.426Z,24.39
2022-09-15T12:02:12.581Z,23.45
2022-09-15T12:04:57.922Z,23.41
2022-09-15T12:07:31.592Z,23.54
2022-09-15T12:10:07.905Z,24.63
2022-09-15T12:12:37.023Z,24.28
2022-09-15T12:15:05.330Z,23.94
2022-09-15T12:17:41.308Z,24.34
2022-09-15T12:20:18.413Z,24.36
2022-09-15T12:22:52.974Z,24.24
2022-09-15T12:25:27.709Z,23.86
2022-09-15T12:28:42.938Z,23.25
2022-09-15T12:31:35.770Z,23.37
2022-09-15T12:34:05.829Z,22.79
2022-09-15T12:36:42.449Z,22.41
2022-09-15T12:39:26.651Z,22.30
2022-09-15T12:41:58.324Z,21.85
2022-09-15T12:44:33.174Z,22.34
2022-09-15T12:47:02.828Z,22.50
2022-09-15T12:49:34.094Z,22.51
2022-09-15T12:52:06.289Z,22.99
2022-09-15T12:54:36.795Z,22.40
2022-09-15T12:57:07.963Z,22.57
2022-09-15T12:59:35.695Z,22.58
2022-09-15T13:02:03.278Z,23.05
2022-09-15T13:04:55.094Z,23.42
2022-09-15T13:07:33.664Z,23.28
2022-09-15T13:10:18.704Z,23.04
2022-09-15T13:12:58.743Z,22.47
2022-09-15T13:15:27.828Z,22.42
2022-09-15T13:17:56.707Z,22.72
2022-09-15T13:20:32.783Z,22.65
2022-09-15T13:23:01.035Z,22.77
2022-09-15T13:25:31.194Z,22.99
2022-09-15T13:28:02.267Z,22.64
2022-09-15T13:30:43.501Z,23.24
2022-09-15T13:35:02.268Z,24.01
2022-09-15T13:38:04.314Z,23.69
2022-09-15T13:39:45.637Z,22.79
2022-09-15T13:42:40.815Z,22.68
2022-09-15T13:45:38.547Z,22.72
2022-09-15T13:48:28.321Z,22.69
2022-09-15T13:51:00.753Z,22.70
2022-09-15T13:53:49.212Z,22.72
2022-09-15T13:56:21.348Z,22.60
2022-09-15T13:59:01.347Z,22.72
2022-09-15T14:01:36.017Z,22.99
2022-09-15T14:04:08.462Z,22.53
2022-09-15T14:06:39.352Z,22.43
2022-09-15T14:09:13.597Z,23.06
2022-09-15T14:11:43.958Z,22.86
2022-09-15T14:14:31.102Z,22.89
2022-09-15T14:17:00.265Z,23.22
2022-09-15T14:19:33.423Z,23.72
2022-09-15T14:22:02.020Z,23.71
2022-09-15T14:24:31.401Z,24.34
2022-09-15T14:27:03.282Z,23.99
2022-09-15T14:29:30.919Z,23.28
2022-09-15T14:32:03.814Z,23.34
2022-09-15T14:34:36.133Z,23.32
2022-09-15T14:37:07.798Z,22.87
2022-09-15T14:39:37.588Z,22.70
2022-09-15T14:42:20.321Z,23.16
2022-09-15T14:47:41.689Z,22.55
2022-09-15T14:50:13.454Z,22.49
2022-09-15T14:52:43.685Z,22.62
2022-09-15T14:55:16.842Z,22.82
2022-09-15T14:57:52.440Z,22.66
2022-09-15T15:00:24.110Z,22.65
2022-09-15T15:03:06.393Z,22.62
2022-09-15T15:05:40.479Z,22.61
2022-09-15T15:08:14.804Z,22.30
2022-09-15T15:10:42.511Z,22.27
2022-09-15T15:13:15.601Z,22.33
2022-09-15T15:15:44.457Z,22.46
2022-09-15T15:18:38.849Z,22.02
2022-09-15T15:21:07.571Z,21.96
2022-09-15T15:23:35.166Z,21.88
2022-09-15T15:26:27.250Z,21.78
2022-09-15T15:28:54.816Z,22.00
2022-09-15T15:31:24.391Z,21.91
2022-09-15T15:33:57.081Z,21.95
2022-09-15T15:36:25.698Z,21.81
2022-09-15T15:38:54.930Z,21.90
2022-09-15T15:41:25.059Z,21.81
2022-09-15T15:43:57.538Z,21.67
2022-09-15T15:46:51.506Z,21.71
2022-09-15T15:49:22.824Z,21.66
2022-09-15T15:51:50.562Z,21.82
2022-09-15T15:54:18.117Z,21.81
2022-09-15T15:56:46.901Z,21.68
2022-09-15T15:59:16.007Z,21.52
2022-09-15T16:01:44.321Z,21.53
2022-09-15T16:04:12.885Z,21.85
2022-09-15T16:06:43.106Z,21.58
2022-09-15T16:09:11.889Z,21.36
2022-09-15T16:11:39.519Z,21.67
2022-09-15T16:14:07.138Z,21.37
2022-09-15T16:16:34.877Z,21.56
2022-09-15T16:19:02.468Z,21.06
2022-09-15T16:21:36.964Z,21.36
2022-09-15T16:24:07.136Z,21.26
2022-09-15T16:26:35.804Z,20.90
2022-09-15T16:29:03.538Z,21.23
2022-09-15T16:31:32.128Z,21.39
2022-09-15T16:33:59.905Z,21.22
2022-09-15T16:36:27.941Z,21.39
2022-09-15T16:38:55.470Z,21.27
2022-09-15T16:41:25.660Z,21.13
2022-09-15T16:43:55.674Z,21.39
2022-09-15T16:46:23.519Z,21.38
2022-09-15T16:48:51.657Z,21.32
2022-09-15T16:51:27.962Z,20.95
2022-09-15T16:53:58.526Z,20.78
2022-09-15T16:56:27.897Z,20.76
2022-09-15T16:59:00.087Z,20.55
2022-09-15T17:01:28.353Z,20.37
2022-09-15T17:03:56.182Z,20.51
2022-09-15T17:06:23.772Z,20.31
2022-09-15T17:08:51.497Z,20.12
2022-09-15T17:11:22.130Z,20.04
2022-09-15T17:13:51.063Z,19.87
2022-09-15T17:16:20.190Z,19.83
2022-09-15T17:18:48.224Z,19.68
2022-09-15T17:21:17.797Z,19.48
2022-09-15T17:23:47.159Z,19.29
2022-09-15T17:26:16.362Z,19.07
2022-09-15T17:28:44.042Z,19.06
2022-09-15T17:31:16.886Z,18.93
2022-09-15T17:33:45.213Z,18.88
2022-09-15T17:36:13.440Z,18.68
2022-09-15T17:38:41.548Z,18.57
2022-09-15T17:41:14.620Z,18.31
2022-09-15T17:43:42.225Z,18.18
2022-09-15T17:46:09.964Z,18.26
2022-09-15T17:48:39.201Z,18.29
2022-09-15T17:51:07.306Z,18.21
2022-09-15T17:53:35.178Z,18.22
2022-09-15T17:56:03.118Z,18.07
2022-09-15T17:58:31.785Z,18.04
2022-09-15T18:01:00.083Z,17.87
2022-09-15T18:03:29.871Z,17.73
2022-09-15T18:06:00.862Z,17.57
2022-09-15T18:08:28.828Z,17.54
2022-09-15T18:10:56.633Z,17.46
2022-09-15T18:13:27.494Z,17.34
2022-09-15T18:15:55.773Z,17.22
2022-09-15T18:18:25.222Z,17.18
2022-09-15T18:20:54.831Z,17.06
2022-09-15T18:23:25.555Z,17.02
2022-09-15T18:25:53.417Z,16.91
2022-09-15T18:28:21.248Z,16.80
2022-09-15T18:30:50.833Z,16.57
2022-09-15T18:33:21.260Z,16.48
2022-09-15T18:35:50.595Z,16.36
2022-09-15T18:38:18.705Z,16.38
2022-09-15T18:40:49.474Z,16.28
2022-09-15T18:43:17.346Z,16.22
2022-09-15T18:45:45.422Z,16.20
2022-09-15T18:48:13.953Z,16.12
2022-09-15T18:50:42.606Z,16.11
2022-09-15T18:53:10.757Z,16.01
2022-09-15T18:55:41.805Z,15.97
2022-09-15T18:58:11.717Z,15.95
2022-09-15T19:00:39.430Z,15.92
2022-09-15T19:03:09.338Z,15.82
2022-09-15T19:05:37.407Z,15.70
2022-09-15T19:08:05.376Z,15.64
2022-09-15T19:10:33.156Z,15.56
2022-09-15T19:13:00.724Z,15.42
2022-09-15T19:15:33.674Z,15.45
2022-09-15T19:18:02.041Z,15.35
2022-09-15T19:20:30.132Z,15.35
2022-09-15T19:22:57.871Z,15.17
2022-09-15T19:25:25.666Z,15.18
2022-09-15T19:27:53.326Z,15.21
2022-09-15T19:30:21.207Z,15.21
2022-09-15T19:32:50.169Z,15.11
2022-09-15T19:35:17.838Z,15.06
2022-09-15T19:37:45.444Z,15.09
2022-09-15T19:40:14.917Z,14.98
2022-09-15T19:42:44.313Z,15.02
2022-09-15T19:45:13.147Z,15.02
2022-09-15T19:47:41.660Z,14.93
2022-09-15T19:50:12.633Z,14.92
2022-09-15T19:52:40.953Z,14.80
2022-09-15T19:55:09.976Z,14.92
2022-09-15T19:57:39.774Z,14.82
2022-09-15T20:00:09.788Z,14.88
2022-09-15T20:02:37.462Z,14.84
2022-09-15T20:05:05.730Z,14.91
2022-09-15T20:07:34.633Z,14.93
2022-09-15T20:10:02.357Z,14.97
2022-09-15T20:12:31.074Z,14.85
2022-09-15T20:14:58.577Z,14.89
2022-09-15T20:17:26.129Z,14.94
2022-09-15T20:19:53.681Z,14.82
2022-09-15T20:22:21.664Z,14.86
2022-09-15T20:24:51.440Z,14.76
2022-09-15T20:27:18.950Z,14.81
2022-09-15T20:29:46.459Z,14.85
2022-09-15T20:32:14.036Z,14.91
2022-09-15T20:34:41.692Z,14.94
2022-09-15T20:37:09.639Z,15.01
2022-09-15T20:39:37.228Z,15.02
2022-09-15T20:42:06.487Z,14.99
2022-09-15T20:44:34.091Z,15.02
2022-09-15T20:47:01.623Z,15.09
2022-09-15T20:49:29.182Z,15.07
2022-09-15T20:51:56.703Z,15.07
2022-09-15T20:54:24.266Z,14.97
2022-09-15T20:56:51.861Z,15.09
2022-09-15T20:59:20.768Z,15.17
2022-09-15T21:01:48.601Z,15.13
2022-09-15T21:04:16.165Z,15.18
2022-09-15T21:06:43.721Z,15.23
2022-09-15T21:09:11.533Z,15.21
2022-09-15T21:11:39.316Z,15.20
2022-09-15T21:14:06.850Z,15.20
2022-09-15T21:16:35.811Z,15.19
2022-09-15T21:19:03.453Z,15.25
2022-09-15T21:21:32.870Z,15.19
2022-09-15T21:24:03.718Z,15.21
2022-09-15T21:26:33.454Z,15.18
2022-09-15T21:29:01.430Z,15.19
2022-09-15T21:31:32.150Z,15.25
2022-09-15T21:34:01.505Z,15.34
2022-09-15T21:36:30.580Z,15.32
2022-09-15T21:38:59.847Z,15.41
2022-09-15T21:41:30.180Z,15.24
2022-09-15T21:43:58.967Z,15.37
2022-09-15T21:46:28.982Z,15.34
2022-09-15T21:48:57.640Z,15.31
2022-09-15T21:51:29.290Z,15.43
2022-09-15T21:53:58.091Z,15.45
2022-09-15T21:56:27.285Z,15.42
2022-09-15T21:58:55.130Z,15.28
2022-09-15T22:01:25.218Z,15.28
2022-09-15T22:03:54.800Z,15.34
2022-09-15T22:06:27.440Z,15.38
2022-09-15T22:08:56.727Z,15.40
2022-09-15T22:11:24.550Z,15.34
2022-09-15T22:13:52.269Z,15.38
2022-09-15T22:16:21.644Z,15.32
2022-09-15T22:18:50.329Z,15.32
2022-09-15T22:21:19.754Z,15.36
2022-09-15T22:23:48.654Z,15.34
2022-09-15T22:26:19.934Z,15.40
2022-09-15T22:28:48.351Z,15.41
2022-09-15T22:31:18.217Z,15.48
2022-09-15T22:33:46.257Z,15.50
2022-09-15T22:36:15.562Z,15.50
2022-09-15T22:38:43.911Z,15.55
2022-09-15T22:41:13.828Z,15.47
2022-09-15T22:43:44.732Z,15.48
2022-09-15T22:46:12.951Z,15.42
2022-09-15T22:48:43.537Z,15.44
2022-09-15T22:51:11.397Z,15.58
2022-09-15T22:53:39.125Z,15.46
2022-09-15T22:56:08.500Z,15.50
2022-09-15T22:58:36.812Z,15.45
2022-09-15T23:01:08.018Z,15.40
2022-09-15T23:03:35.748Z,15.40
2022-09-15T23:06:04.077Z,15.52
2022-09-15T23:08:32.937Z,15.49
2022-09-15T23:11:05.931Z,15.53
2022-09-15T23:13:33.840Z,15.48
2022-09-15T23:16:01.863Z,15.41
2022-09-15T23:18:30.876Z,15.34
2022-09-15T23:21:00.043Z,15.34
2022-09-15T23:23:28.072Z,15.26
2022-09-15T23:25:55.811Z,15.23
2022-09-15T23:28:24.300Z,15.22
2022-09-15T23:30:53.164Z,15.24
2022-09-15T23:33:21.196Z,15.19
2022-09-15T23:35:50.796Z,15.18
2022-09-15T23:38:19.515Z,15.25
2022-09-15T23:40:48.188Z,15.32
2022-09-15T23:43:16.348Z,15.34
2022-09-15T23:45:44.868Z,15.34
2022-09-15T23:48:13.455Z,15.41
2022-09-15T23:50:41.795Z,15.26
2022-09-15T23:53:11.010Z,15.21
2022-09-15T23:55:38.701Z,15.11
2022-09-15T23:58:06.747Z,15.17
